sensor_id;sensor_type;location;lat;lon;timestamp;pressure;altitude;pressure_sealevel;temperature;humidity
42169;BME280;27838;43.858;25.974;2023-06-22T00:00:50;101283.25;;;26.72;55.04
42169;BME280;27838;43.858;25.974;2023-06-22T00:03:22;101284.28;;;26.70;55.30
42169;BME280;27838;43.858;25.974;2023-06-22T00:05:49;101280.84;;;26.68;55.07
42169;BME280;27838;43.858;25.974;2023-06-22T00:08:17;101280.94;;;26.66;55.07
42169;BME280;27838;43.858;25.974;2023-06-22T00:10:44;101285.44;;;26.66;55.54
42169;BME280;27838;43.858;25.974;2023-06-22T00:13:12;101272.28;;;26.61;55.36
42169;BME280;27838;43.858;25.974;2023-06-22T00:15:40;101285.34;;;26.67;55.49
42169;BME280;27838;43.858;25.974;2023-06-22T00:18:09;101276.63;;;26.64;55.26
42169;BME280;27838;43.858;25.974;2023-06-22T00:20:36;101276.88;;;26.59;55.27
42169;BME280;27838;43.858;25.974;2023-06-22T00:23:05;101272.06;;;26.50;56.08
42169;BME280;27838;43.858;25.974;2023-06-22T00:25:37;101253.31;;;26.35;56.25
42169;BME280;27838;43.858;25.974;2023-06-22T00:28:05;101274.78;;;26.34;56.58
42169;BME280;27838;43.858;25.974;2023-06-22T00:30:33;101268.66;;;26.32;56.99
42169;BME280;27838;43.858;25.974;2023-06-22T00:33:00;101270.75;;;26.27;57.15
42169;BME280;27838;43.858;25.974;2023-06-22T00:35:27;101275.31;;;26.25;57.17
42169;BME280;27838;43.858;25.974;2023-06-22T00:37:55;101271.06;;;26.21;56.87
42169;BME280;27838;43.858;25.974;2023-06-22T00:40:27;101265.22;;;26.14;57.38
42169;BME280;27838;43.858;25.974;2023-06-22T00:42:54;101271.94;;;26.05;57.86
42169;BME280;27838;43.858;25.974;2023-06-22T00:45:21;101287.88;;;26.07;57.78
42169;BME280;27838;43.858;25.974;2023-06-22T00:47:50;101282.91;;;26.00;58.27
42169;BME280;27838;43.858;25.974;2023-06-22T00:50:22;101278.78;;;25.95;58.41
42169;BME280;27838;43.858;25.974;2023-06-22T00:52:57;101287.06;;;25.89;59.23
42169;BME280;27838;43.858;25.974;2023-06-22T00:55:25;101279.22;;;25.86;59.78
42169;BME280;27838;43.858;25.974;2023-06-22T00:57:53;101278.53;;;25.82;59.98
42169;BME280;27838;43.858;25.974;2023-06-22T01:00:23;101277.09;;;25.76;60.41
42169;BME280;27838;43.858;25.974;2023-06-22T01:02:51;101286.81;;;25.77;60.75
42169;BME280;27838;43.858;25.974;2023-06-22T01:05:20;101286.22;;;25.72;60.93
42169;BME280;27838;43.858;25.974;2023-06-22T01:07:53;101281.81;;;25.71;60.90
42169;BME280;27838;43.858;25.974;2023-06-22T01:10:32;101279.28;;;25.68;61.20
42169;BME280;27838;43.858;25.974;2023-06-22T01:13:06;101275.16;;;25.62;61.40
42169;BME280;27838;43.858;25.974;2023-06-22T01:15:39;101274.31;;;25.62;61.56
42169;BME280;27838;43.858;25.974;2023-06-22T01:18:08;101274.56;;;25.57;62.15
42169;BME280;27838;43.858;25.974;2023-06-22T01:20:37;101265.25;;;25.49;62.26
42169;BME280;27838;43.858;25.974;2023-06-22T01:23:13;101272.78;;;25.40;62.78
42169;BME280;27838;43.858;25.974;2023-06-22T01:25:49;101268.09;;;25.28;63.42
42169;BME280;27838;43.858;25.974;2023-06-22T01:28:43;101281.81;;;25.20;63.78
42169;BME280;27838;43.858;25.974;2023-06-22T01:31:13;101276.19;;;25.09;63.85
42169;BME280;27838;43.858;25.974;2023-06-22T01:33:43;101283.78;;;25.17;63.89
42169;BME280;27838;43.858;25.974;2023-06-22T01:36:10;101282.69;;;25.21;63.61
42169;BME280;27838;43.858;25.974;2023-06-22T01:38:39;101275.94;;;25.31;63.41
42169;BME280;27838;43.858;25.974;2023-06-22T01:41:06;101279.41;;;25.33;63.19
42169;BME280;27838;43.858;25.974;2023-06-22T01:43:33;101289.84;;;25.38;62.86
42169;BME280;27838;43.858;25.974;2023-06-22T01:46:01;101302.31;;;25.37;62.86
42169;BME280;27838;43.858;25.974;2023-06-22T01:48:28;101292.50;;;25.38;62.54
42169;BME280;27838;43.858;25.974;2023-06-22T01:50:55;101293.28;;;25.40;62.47
42169;BME280;27838;43.858;25.974;2023-06-22T01:53:23;101289.84;;;25.38;62.46
42169;BME280;27838;43.858;25.974;2023-06-22T01:55:50;101303.03;;;25.41;62.23
42169;BME280;27838;43.858;25.974;2023-06-22T01:58:16;101302.31;;;25.37;62.09
42169;BME280;27838;43.858;25.974;2023-06-22T02:00:53;101311.09;;;25.39;62.09
42169;BME280;27838;43.858;25.974;2023-06-22T02:03:26;101306.84;;;25.35;62.01
42169;BME280;27838;43.858;25.974;2023-06-22T02:06:01;101315.91;;;25.33;61.98
42169;BME280;27838;43.858;25.974;2023-06-22T02:08:31;101315.97;;;25.31;62.03
42169;BME280;27838;43.858;25.974;2023-06-22T02:10:59;101309.94;;;25.28;62.07
42169;BME280;27838;43.858;25.974;2023-06-22T02:13:27;101317.88;;;25.29;62.06
42169;BME280;27838;43.858;25.974;2023-06-22T02:15:54;101306.69;;;25.21;62.27
42169;BME280;27838;43.858;25.974;2023-06-22T02:18:21;101321.00;;;25.20;62.33
42169;BME280;27838;43.858;25.974;2023-06-22T02:20:47;101324.75;;;25.16;62.32
42169;BME280;27838;43.858;25.974;2023-06-22T02:23:14;101321.28;;;25.14;62.40
42169;BME280;27838;43.858;25.974;2023-06-22T02:25:40;101319.75;;;25.10;62.69
42169;BME280;27838;43.858;25.974;2023-06-22T02:28:09;101331.25;;;25.10;62.81
42169;BME280;27838;43.858;25.974;2023-06-22T02:30:36;101323.41;;;25.07;62.51
42169;BME280;27838;43.858;25.974;2023-06-22T02:33:02;101324.53;;;25.03;62.90
42169;BME280;27838;43.858;25.974;2023-06-22T02:35:29;101325.44;;;25.02;63.05
42169;BME280;27838;43.858;25.974;2023-06-22T02:38:00;101331.97;;;24.96;63.30
42169;BME280;27838;43.858;25.974;2023-06-22T02:40:28;101346.31;;;24.94;63.14
42169;BME280;27838;43.858;25.974;2023-06-22T02:42:54;101343.56;;;24.95;63.15
42169;BME280;27838;43.858;25.974;2023-06-22T02:45:23;101347.97;;;24.96;63.31
42169;BME280;27838;43.858;25.974;2023-06-22T02:47:49;101355.88;;;24.98;63.22
42169;BME280;27838;43.858;25.974;2023-06-22T02:50:16;101354.00;;;25.00;63.06
42169;BME280;27838;43.858;25.974;2023-06-22T02:52:43;101356.66;;;25.00;63.22
42169;BME280;27838;43.858;25.974;2023-06-22T02:55:09;101369.00;;;25.02;63.17
42169;BME280;27838;43.858;25.974;2023-06-22T02:57:36;101361.00;;;25.02;63.17
42169;BME280;27838;43.858;25.974;2023-06-22T03:00:03;101358.34;;;25.02;63.10
42169;BME280;27838;43.858;25.974;2023-06-22T03:02:43;101366.22;;;25.04;62.96
42169;BME280;27838;43.858;25.974;2023-06-22T03:05:10;101367.13;;;25.04;62.95
42169;BME280;27838;43.858;25.974;2023-06-22T03:07:42;101357.53;;;25.00;63.11
42169;BME280;27838;43.858;25.974;2023-06-22T03:10:10;101364.75;;;24.98;63.20
42169;BME280;27838;43.858;25.974;2023-06-22T03:12:40;101374.56;;;24.98;63.25
42169;BME280;27838;43.858;25.974;2023-06-22T03:15:10;101371.09;;;24.96;63.26
42169;BME280;27838;43.858;25.974;2023-06-22T03:17:38;101349.22;;;24.89;63.30
42169;BME280;27838;43.858;25.974;2023-06-22T03:20:05;101367.34;;;25.00;63.22
42169;BME280;27838;43.858;25.974;2023-06-22T03:22:40;101371.66;;;25.02;63.35
42169;BME280;27838;43.858;25.974;2023-06-22T03:25:08;101363.19;;;24.94;63.16
42169;BME280;27838;43.858;25.974;2023-06-22T03:27:41;101359.72;;;24.92;62.90
42169;BME280;27838;43.858;25.974;2023-06-22T03:30:10;101364.88;;;24.95;62.56
42169;BME280;27838;43.858;25.974;2023-06-22T03:32:37;101367.56;;;24.95;62.80
42169;BME280;27838;43.858;25.974;2023-06-22T03:35:05;101353.44;;;24.93;62.72
42169;BME280;27838;43.858;25.974;2023-06-22T03:37:32;101352.38;;;24.97;62.15
42169;BME280;27838;43.858;25.974;2023-06-22T03:39:58;101354.63;;;25.05;61.88
42169;BME280;27838;43.858;25.974;2023-06-22T03:42:26;101347.34;;;25.09;61.60
42169;BME280;27838;43.858;25.974;2023-06-22T03:44:52;101346.56;;;25.06;61.60
42169;BME280;27838;43.858;25.974;2023-06-22T03:47:19;101350.22;;;25.04;61.83
42169;BME280;27838;43.858;25.974;2023-06-22T03:49:45;101356.66;;;25.00;62.02
42169;BME280;27838;43.858;25.974;2023-06-22T03:52:12;101354.31;;;24.94;62.26
42169;BME280;27838;43.858;25.974;2023-06-22T03:54:38;101351.88;;;24.89;62.52
42169;BME280;27838;43.858;25.974;2023-06-22T03:57:05;101352.81;;;24.88;62.74
42169;BME280;27838;43.858;25.974;2023-06-22T03:59:31;101347.03;;;24.80;62.71
42169;BME280;27838;43.858;25.974;2023-06-22T04:01:59;101352.03;;;24.86;62.67
42169;BME280;27838;43.858;25.974;2023-06-22T04:04:25;101360.44;;;24.96;62.41
42169;BME280;27838;43.858;25.974;2023-06-22T04:06:53;101358.16;;;25.05;62.04
42169;BME280;27838;43.858;25.974;2023-06-22T04:09:19;101356.91;;;25.13;61.66
42169;BME280;27838;43.858;25.974;2023-06-22T04:11:46;101349.69;;;25.15;61.21
42169;BME280;27838;43.858;25.974;2023-06-22T04:14:13;101361.72;;;25.23;60.96
42169;BME280;27838;43.858;25.974;2023-06-22T04:16:40;101356.13;;;25.28;60.64
42169;BME280;27838;43.858;25.974;2023-06-22T04:19:06;101350.56;;;25.33;60.53
42169;BME280;27838;43.858;25.974;2023-06-22T04:21:38;101354.09;;;25.33;60.29
42169;BME280;27838;43.858;25.974;2023-06-22T04:24:05;101362.56;;;25.41;59.78
42169;BME280;27838;43.858;25.974;2023-06-22T04:26:31;101363.19;;;25.47;59.73
42169;BME280;27838;43.858;25.974;2023-06-22T04:29:05;101348.91;;;25.48;58.99
42169;BME280;27838;43.858;25.974;2023-06-22T04:31:36;101374.34;;;25.55;58.91
42169;BME280;27838;43.858;25.974;2023-06-22T04:34:04;101382.25;;;25.56;59.10
42169;BME280;27838;43.858;25.974;2023-06-22T04:36:37;101379.03;;;25.67;58.30
42169;BME280;27838;43.858;25.974;2023-06-22T04:39:05;101383.03;;;25.76;57.92
42169;BME280;27838;43.858;25.974;2023-06-22T04:41:32;101388.72;;;25.86;57.40
42169;BME280;27838;43.858;25.974;2023-06-22T04:44:11;101392.78;;;25.93;57.55
42169;BME280;27838;43.858;25.974;2023-06-22T04:46:38;101397.91;;;25.97;57.40
42169;BME280;27838;43.858;25.974;2023-06-22T04:49:08;101395.31;;;25.96;57.47
42169;BME280;27838;43.858;25.974;2023-06-22T04:51:40;101405.69;;;26.02;57.96
42169;BME280;27838;43.858;25.974;2023-06-22T04:54:09;101407.16;;;26.08;58.28
42169;BME280;27838;43.858;25.974;2023-06-22T04:56:35;101398.53;;;26.18;57.59
42169;BME280;27838;43.858;25.974;2023-06-22T04:59:02;101393.81;;;26.24;57.24
42169;BME280;27838;43.858;25.974;2023-06-22T05:01:29;101389.06;;;26.29;57.41
42169;BME280;27838;43.858;25.974;2023-06-22T05:03:57;101392.53;;;26.31;57.01
42169;BME280;27838;43.858;25.974;2023-06-22T05:06:26;101389.69;;;26.34;57.02
42169;BME280;27838;43.858;25.974;2023-06-22T05:08:54;101388.63;;;26.36;57.02
42169;BME280;27838;43.858;25.974;2023-06-22T05:11:29;101392.78;;;26.42;56.82
42169;BME280;27838;43.858;25.974;2023-06-22T05:13:55;101399.84;;;26.43;57.14
42169;BME280;27838;43.858;25.974;2023-06-22T05:16:22;101383.66;;;26.46;57.09
42169;BME280;27838;43.858;25.974;2023-06-22T05:18:52;101384.09;;;26.54;57.23
42169;BME280;27838;43.858;25.974;2023-06-22T05:21:26;101380.06;;;26.63;56.85
42169;BME280;27838;43.858;25.974;2023-06-22T05:23:53;101379.09;;;26.64;56.02
42169;BME280;27838;43.858;25.974;2023-06-22T05:26:22;101389.16;;;26.75;55.72
42169;BME280;27838;43.858;25.974;2023-06-22T05:28:48;101395.09;;;26.80;55.39
42169;BME280;27838;43.858;25.974;2023-06-22T05:31:16;101404.69;;;26.84;55.05
42169;BME280;27838;43.858;25.974;2023-06-22T05:33:45;101398.28;;;26.87;54.66
42169;BME280;27838;43.858;25.974;2023-06-22T05:36:12;101396.22;;;26.92;54.42
42169;BME280;27838;43.858;25.974;2023-06-22T05:38:39;101401.91;;;27.02;54.16
42169;BME280;27838;43.858;25.974;2023-06-22T05:41:06;101384.88;;;27.03;54.41
42169;BME280;27838;43.858;25.974;2023-06-22T05:43:33;101381.47;;;27.15;53.35
42169;BME280;27838;43.858;25.974;2023-06-22T05:46:01;101399.41;;;27.29;52.94
42169;BME280;27838;43.858;25.974;2023-06-22T05:48:28;101393.97;;;27.30;51.06
42169;BME280;27838;43.858;25.974;2023-06-22T05:50:54;101389.22;;;27.36;49.84
42169;BME280;27838;43.858;25.974;2023-06-22T05:53:21;101390.56;;;27.43;49.11
42169;BME280;27838;43.858;25.974;2023-06-22T05:55:47;101384.09;;;27.47;49.49
42169;BME280;27838;43.858;25.974;2023-06-22T05:58:14;101371.94;;;27.56;49.19
42169;BME280;27838;43.858;25.974;2023-06-22T06:00:41;101379.59;;;27.62;48.39
42169;BME280;27838;43.858;25.974;2023-06-22T06:03:09;101375.66;;;27.67;47.97
42169;BME280;27838;43.858;25.974;2023-06-22T06:05:37;101386.78;;;27.76;47.90
42169;BME280;27838;43.858;25.974;2023-06-22T06:08:05;101382.38;;;27.75;47.00
42169;BME280;27838;43.858;25.974;2023-06-22T06:10:32;101394.72;;;27.77;46.63
42169;BME280;27838;43.858;25.974;2023-06-22T06:12:59;101392.72;;;27.81;47.08
42169;BME280;27838;43.858;25.974;2023-06-22T06:15:27;101385.84;;;27.91;47.04
42169;BME280;27838;43.858;25.974;2023-06-22T06:17:54;101394.66;;;27.93;47.21
42169;BME280;27838;43.858;25.974;2023-06-22T06:20:25;101393.13;;;28.03;47.22
42169;BME280;27838;43.858;25.974;2023-06-22T06:22:53;101380.88;;;28.14;46.96
42169;BME280;27838;43.858;25.974;2023-06-22T06:25:19;101382.09;;;28.22;46.91
42169;BME280;27838;43.858;25.974;2023-06-22T06:27:48;101380.06;;;28.26;46.85
42169;BME280;27838;43.858;25.974;2023-06-22T06:30:16;101392.13;;;28.33;46.91
42169;BME280;27838;43.858;25.974;2023-06-22T06:32:43;101389.16;;;28.38;46.85
42169;BME280;27838;43.858;25.974;2023-06-22T06:35:12;101391.50;;;28.42;46.98
42169;BME280;27838;43.858;25.974;2023-06-22T06:37:41;101384.78;;;28.50;47.22
42169;BME280;27838;43.858;25.974;2023-06-22T06:40:09;101383.75;;;28.52;46.23
42169;BME280;27838;43.858;25.974;2023-06-22T06:42:41;101395.63;;;28.62;46.20
42169;BME280;27838;43.858;25.974;2023-06-22T06:45:10;101384.81;;;28.64;45.68
42169;BME280;27838;43.858;25.974;2023-06-22T06:47:37;101393.19;;;28.72;45.92
42169;BME280;27838;43.858;25.974;2023-06-22T06:50:05;101387.44;;;28.78;45.69
42169;BME280;27838;43.858;25.974;2023-06-22T06:52:33;101383.56;;;28.83;45.71
42169;BME280;27838;43.858;25.974;2023-06-22T06:54:59;101381.13;;;28.92;45.01
42169;BME280;27838;43.858;25.974;2023-06-22T06:57:26;101383.59;;;28.95;45.10
42169;BME280;27838;43.858;25.974;2023-06-22T06:59:54;101378.69;;;29.02;44.69
42169;BME280;27838;43.858;25.974;2023-06-22T07:02:23;101387.28;;;29.07;44.95
42169;BME280;27838;43.858;25.974;2023-06-22T07:04:50;101382.66;;;29.09;44.38
42169;BME280;27838;43.858;25.974;2023-06-22T07:07:16;101385.03;;;29.14;44.03
42169;BME280;27838;43.858;25.974;2023-06-22T07:09:43;101375.97;;;29.16;43.77
42169;BME280;27838;43.858;25.974;2023-06-22T07:12:10;101378.31;;;29.21;42.92
42169;BME280;27838;43.858;25.974;2023-06-22T07:14:36;101385.63;;;29.32;43.17
42169;BME280;27838;43.858;25.974;2023-06-22T07:17:03;101384.56;;;29.34;43.60
42169;BME280;27838;43.858;25.974;2023-06-22T07:19:30;101391.44;;;29.38;43.28
42169;BME280;27838;43.858;25.974;2023-06-22T07:21:57;101390.28;;;29.43;42.49
42169;BME280;27838;43.858;25.974;2023-06-22T07:24:24;101386.50;;;29.45;42.63
42169;BME280;27838;43.858;25.974;2023-06-22T07:26:51;101391.47;;;29.51;43.02
42169;BME280;27838;43.858;25.974;2023-06-22T07:29:18;101391.34;;;29.53;41.48
42169;BME280;27838;43.858;25.974;2023-06-22T07:31:45;101384.16;;;29.53;41.11
42169;BME280;27838;43.858;25.974;2023-06-22T07:34:12;101383.06;;;29.56;41.03
42169;BME280;27838;43.858;25.974;2023-06-22T07:36:39;101380.81;;;29.63;40.45
42169;BME280;27838;43.858;25.974;2023-06-22T07:39:05;101376.94;;;29.67;40.99
42169;BME280;27838;43.858;25.974;2023-06-22T07:41:32;101380.41;;;29.69;40.48
42169;BME280;27838;43.858;25.974;2023-06-22T07:43:59;101388.78;;;29.77;40.20
42169;BME280;27838;43.858;25.974;2023-06-22T07:46:25;101385.16;;;29.78;39.90
42169;BME280;27838;43.858;25.974;2023-06-22T07:48:52;101389.97;;;29.86;39.83
42169;BME280;27838;43.858;25.974;2023-06-22T07:51:19;101385.22;;;29.89;40.02
42169;BME280;27838;43.858;25.974;2023-06-22T07:53:45;101387.72;;;29.92;39.42
42169;BME280;27838;43.858;25.974;2023-06-22T07:56:12;101393.81;;;29.94;40.04
42169;BME280;27838;43.858;25.974;2023-06-22T07:58:44;101392.66;;;29.99;39.32
42169;BME280;27838;43.858;25.974;2023-06-22T08:01:11;101387.47;;;30.08;39.63
42169;BME280;27838;43.858;25.974;2023-06-22T08:03:38;101397.88;;;30.13;39.57
42169;BME280;27838;43.858;25.974;2023-06-22T08:06:05;101382.28;;;30.18;39.55
42169;BME280;27838;43.858;25.974;2023-06-22T08:08:34;101382.56;;;30.26;39.61
42169;BME280;27838;43.858;25.974;2023-06-22T08:11:01;101376.97;;;30.29;38.34
42169;BME280;27838;43.858;25.974;2023-06-22T08:13:27;101385.38;;;30.38;38.88
42169;BME280;27838;43.858;25.974;2023-06-22T08:15:54;101385.78;;;30.44;39.02
42169;BME280;27838;43.858;25.974;2023-06-22T08:18:21;101389.34;;;30.45;38.46
42169;BME280;27838;43.858;25.974;2023-06-22T08:20:47;101396.56;;;30.44;38.64
42169;BME280;27838;43.858;25.974;2023-06-22T08:23:14;101386.44;;;30.35;38.97
42169;BME280;27838;43.858;25.974;2023-06-22T08:25:41;101382.69;;;30.38;38.52
42169;BME280;27838;43.858;25.974;2023-06-22T08:28:07;101386.63;;;30.45;38.47
42169;BME280;27838;43.858;25.974;2023-06-22T08:30:34;101384.59;;;30.48;39.95
42169;BME280;27838;43.858;25.974;2023-06-22T08:33:01;101386.19;;;30.51;40.48
42169;BME280;27838;43.858;25.974;2023-06-22T08:35:28;101379.63;;;30.55;41.30
42169;BME280;27838;43.858;25.974;2023-06-22T08:37:54;101386.25;;;30.62;41.10
42169;BME280;27838;43.858;25.974;2023-06-22T08:40:22;101387.50;;;30.69;40.44
42169;BME280;27838;43.858;25.974;2023-06-22T08:42:49;101380.16;;;30.72;40.82
42169;BME280;27838;43.858;25.974;2023-06-22T08:45:16;101388.03;;;30.75;39.58
42169;BME280;27838;43.858;25.974;2023-06-22T08:47:43;101375.28;;;30.65;40.19
42169;BME280;27838;43.858;25.974;2023-06-22T08:50:10;101385.66;;;30.70;40.44
42169;BME280;27838;43.858;25.974;2023-06-22T08:52:38;101385.56;;;30.72;40.63
42169;BME280;27838;43.858;25.974;2023-06-22T08:55:07;101380.69;;;30.77;39.92
42169;BME280;27838;43.858;25.974;2023-06-22T08:57:34;101366.28;;;30.78;39.77
42169;BME280;27838;43.858;25.974;2023-06-22T09:00:03;101379.25;;;30.84;40.01
42169;BME280;27838;43.858;25.974;2023-06-22T09:02:32;101382.44;;;30.89;38.82
42169;BME280;27838;43.858;25.974;2023-06-22T09:04:59;101376.44;;;30.85;38.78
42169;BME280;27838;43.858;25.974;2023-06-22T09:07:26;101374.84;;;30.83;39.22
42169;BME280;27838;43.858;25.974;2023-06-22T09:09:53;101381.94;;;30.84;39.05
42169;BME280;27838;43.858;25.974;2023-06-22T09:12:20;101382.72;;;30.86;39.23
42169;BME280;27838;43.858;25.974;2023-06-22T09:14:51;101373.53;;;30.88;38.88
42169;BME280;27838;43.858;25.974;2023-06-22T09:17:18;101373.63;;;30.87;38.57
42169;BME280;27838;43.858;25.974;2023-06-22T09:19:44;101377.81;;;30.91;39.40
42169;BME280;27838;43.858;25.974;2023-06-22T09:22:12;101371.88;;;30.99;39.12
42169;BME280;27838;43.858;25.974;2023-06-22T09:24:39;101370.66;;;31.03;38.66
42169;BME280;27838;43.858;25.974;2023-06-22T09:27:06;101363.59;;;31.02;36.99
42169;BME280;27838;43.858;25.974;2023-06-22T09:29:32;101356.25;;;31.04;36.83
42169;BME280;27838;43.858;25.974;2023-06-22T09:32:00;101367.13;;;31.02;36.60
42169;BME280;27838;43.858;25.974;2023-06-22T09:34:26;101366.78;;;31.07;36.72
42169;BME280;27838;43.858;25.974;2023-06-22T09:36:53;101352.94;;;31.12;36.40
42169;BME280;27838;43.858;25.974;2023-06-22T09:39:20;101361.91;;;31.23;35.50
42169;BME280;27838;43.858;25.974;2023-06-22T09:41:46;101354.47;;;31.27;34.91
42169;BME280;27838;43.858;25.974;2023-06-22T09:44:13;101358.16;;;31.37;35.80
42169;BME280;27838;43.858;25.974;2023-06-22T09:46:40;101345.91;;;31.44;35.78
42169;BME280;27838;43.858;25.974;2023-06-22T09:49:06;101355.03;;;31.55;35.43
42169;BME280;27838;43.858;25.974;2023-06-22T09:51:33;101362.47;;;31.62;35.72
42169;BME280;27838;43.858;25.974;2023-06-22T09:53:59;101358.94;;;31.73;35.45
42169;BME280;27838;43.858;25.974;2023-06-22T09:56:26;101354.53;;;31.84;35.26
42169;BME280;27838;43.858;25.974;2023-06-22T09:58:53;101358.19;;;31.94;35.12
42169;BME280;27838;43.858;25.974;2023-06-22T10:01:20;101357.09;;;31.96;34.26
42169;BME280;27838;43.858;25.974;2023-06-22T10:03:46;101349.63;;;32.00;34.45
42169;BME280;27838;43.858;25.974;2023-06-22T10:06:13;101357.97;;;32.08;34.69
42169;BME280;27838;43.858;25.974;2023-06-22T10:08:40;101355.97;;;32.22;34.48
42169;BME280;27838;43.858;25.974;2023-06-22T10:11:07;101349.22;;;32.27;33.81
42169;BME280;27838;43.858;25.974;2023-06-22T10:13:33;101345.91;;;32.24;34.25
42169;BME280;27838;43.858;25.974;2023-06-22T10:16:00;101353.03;;;32.25;33.90
42169;BME280;27838;43.858;25.974;2023-06-22T10:18:26;101354.50;;;32.29;34.09
42169;BME280;27838;43.858;25.974;2023-06-22T10:20:53;101346.88;;;32.34;33.69
42169;BME280;27838;43.858;25.974;2023-06-22T10:23:20;101345.38;;;32.41;33.96
42169;BME280;27838;43.858;25.974;2023-06-22T10:25:47;101348.56;;;32.46;33.29
42169;BME280;27838;43.858;25.974;2023-06-22T10:28:14;101346.22;;;32.53;33.61
42169;BME280;27838;43.858;25.974;2023-06-22T10:30:41;101343.78;;;32.61;33.85
42169;BME280;27838;43.858;25.974;2023-06-22T10:33:08;101338.72;;;32.68;33.79
42169;BME280;27838;43.858;25.974;2023-06-22T10:35:35;101331.69;;;32.77;33.84
42169;BME280;27838;43.858;25.974;2023-06-22T10:38:03;101336.69;;;32.81;33.93
42169;BME280;27838;43.858;25.974;2023-06-22T10:40:30;101330.78;;;32.87;33.79
42169;BME280;27838;43.858;25.974;2023-06-22T10:42:57;101326.56;;;32.95;33.38
42169;BME280;27838;43.858;25.974;2023-06-22T10:45:23;101320.78;;;32.99;34.11
42169;BME280;27838;43.858;25.974;2023-06-22T10:47:50;101323.50;;;33.09;33.45
42169;BME280;27838;43.858;25.974;2023-06-22T10:50:17;101320.09;;;33.07;32.32
42169;BME280;27838;43.858;25.974;2023-06-22T10:52:45;101319.84;;;33.10;32.69
42169;BME280;27838;43.858;25.974;2023-06-22T10:55:11;101317.63;;;33.15;32.59
42169;BME280;27838;43.858;25.974;2023-06-22T10:57:38;101309.16;;;33.08;32.17
42169;BME280;27838;43.858;25.974;2023-06-22T11:00:08;101310.59;;;33.12;32.70
42169;BME280;27838;43.858;25.974;2023-06-22T11:02:36;101313.06;;;33.16;32.82
42169;BME280;27838;43.858;25.974;2023-06-22T11:05:03;101311.69;;;33.21;32.12
42169;BME280;27838;43.858;25.974;2023-06-22T11:07:30;101311.16;;;33.27;32.63
42169;BME280;27838;43.858;25.974;2023-06-22T11:09:56;101307.06;;;33.33;32.95
42169;BME280;27838;43.858;25.974;2023-06-22T11:12:23;101310.78;;;33.42;32.66
42169;BME280;27838;43.858;25.974;2023-06-22T11:14:49;101315.06;;;33.44;32.31
42169;BME280;27838;43.858;25.974;2023-06-22T11:17:17;101316.53;;;33.48;32.99
42169;BME280;27838;43.858;25.974;2023-06-22T11:19:44;101317.09;;;33.52;32.43
42169;BME280;27838;43.858;25.974;2023-06-22T11:22:11;101309.97;;;33.51;32.04
42169;BME280;27838;43.858;25.974;2023-06-22T11:24:38;101304.44;;;33.53;32.04
42169;BME280;27838;43.858;25.974;2023-06-22T11:27:05;101307.72;;;33.56;32.34
42169;BME280;27838;43.858;25.974;2023-06-22T11:29:31;101306.03;;;33.55;31.86
42169;BME280;27838;43.858;25.974;2023-06-22T11:31:58;101304.63;;;33.61;32.20
42169;BME280;27838;43.858;25.974;2023-06-22T11:34:24;101303.47;;;33.63;31.79
42169;BME280;27838;43.858;25.974;2023-06-22T11:36:51;101286.56;;;33.61;32.01
42169;BME280;27838;43.858;25.974;2023-06-22T11:39:17;101297.84;;;33.66;31.90
42169;BME280;27838;43.858;25.974;2023-06-22T11:41:44;101290.69;;;33.65;32.36
42169;BME280;27838;43.858;25.974;2023-06-22T11:44:10;101289.84;;;33.65;32.24
42169;BME280;27838;43.858;25.974;2023-06-22T11:46:37;101294.38;;;33.64;32.34
42169;BME280;27838;43.858;25.974;2023-06-22T11:49:03;101287.53;;;33.60;31.60
42169;BME280;27838;43.858;25.974;2023-06-22T11:51:30;101287.13;;;33.65;32.40
42169;BME280;27838;43.858;25.974;2023-06-22T11:53:57;101290.69;;;33.65;32.08
42169;BME280;27838;43.858;25.974;2023-06-22T11:56:24;101281.84;;;33.63;32.39
42169;BME280;27838;43.858;25.974;2023-06-22T11:58:50;101286.69;;;33.60;31.42
42169;BME280;27838;43.858;25.974;2023-06-22T12:04:39;101295.75;;;33.49;31.60
42169;BME280;27838;43.858;25.974;2023-06-22T12:07:05;101278.91;;;33.36;31.77
42169;BME280;27838;43.858;25.974;2023-06-22T12:09:32;101270.91;;;33.24;32.36
42169;BME280;27838;43.858;25.974;2023-06-22T12:11:58;101286.28;;;33.34;32.93
42169;BME280;27838;43.858;25.974;2023-06-22T12:14:25;101275.09;;;33.38;32.85
42169;BME280;27838;43.858;25.974;2023-06-22T12:16:51;101273.81;;;33.42;33.32
42169;BME280;27838;43.858;25.974;2023-06-22T12:19:18;101275.28;;;33.46;33.26
42169;BME280;27838;43.858;25.974;2023-06-22T12:21:45;101267.00;;;33.48;33.14
42169;BME280;27838;43.858;25.974;2023-06-22T12:24:12;101266.88;;;33.49;32.34
42169;BME280;27838;43.858;25.974;2023-06-22T12:26:39;101268.00;;;33.47;32.36
42169;BME280;27838;43.858;25.974;2023-06-22T12:29:05;101274.13;;;33.49;32.05
42169;BME280;27838;43.858;25.974;2023-06-22T12:31:32;101260.63;;;33.49;32.53
42169;BME280;27838;43.858;25.974;2023-06-22T12:33:59;101257.34;;;33.45;32.58
42169;BME280;27838;43.858;25.974;2023-06-22T12:36:25;101254.50;;;33.47;32.98
42169;BME280;27838;43.858;25.974;2023-06-22T12:38:53;101257.66;;;33.52;33.61
42169;BME280;27838;43.858;25.974;2023-06-22T12:41:19;101248.41;;;33.55;32.85
42169;BME280;27838;43.858;25.974;2023-06-22T12:43:46;101239.72;;;33.51;33.00
42169;BME280;27838;43.858;25.974;2023-06-22T12:46:13;101243.13;;;33.53;32.99